createdAt,value
2023-04-22T00:03:37.920Z,76.2
2023-04-22T00:09:37.982Z,76
2023-04-22T00:15:37.702Z,75.9
2023-04-22T00:21:37.305Z,76
2023-04-22T00:27:38.845Z,75.9
2023-04-22T00:33:37.517Z,75.9
2023-04-22T00:39:38.618Z,75.5
2023-04-22T00:45:37.677Z,75.4
2023-04-22T00:51:37.571Z,75.2
2023-04-22T00:57:37.559Z,75.1
2023-04-22T01:03:37.784Z,74.9
2023-04-22T01:09:38.130Z,75
2023-04-22T01:15:37.396Z,74.8
2023-04-22T01:27:37.840Z,74.8
2023-04-22T01:33:37.876Z,75
2023-04-22T01:39:37.649Z,75
2023-04-22T01:45:37.581Z,75
2023-04-22T01:51:37.368Z,74.9
2023-04-22T01:57:37.939Z,74.5
2023-04-22T02:03:37.413Z,74.8
2023-04-22T02:09:38.103Z,74.9
2023-04-22T02:15:38.562Z,74.7
2023-04-22T02:27:37.870Z,75.1
2023-04-22T02:33:37.717Z,75
2023-04-22T02:39:37.990Z,74.6
2023-04-22T02:45:37.724Z,74.4
2023-04-22T02:51:37.360Z,74.3
2023-04-22T02:57:37.460Z,74.3
2023-04-22T03:03:37.961Z,74.3
2023-04-22T03:09:38.058Z,73.8
2023-04-22T03:15:37.694Z,73.8
2023-04-22T03:21:38.027Z,73.3
2023-04-22T03:27:37.394Z,73.2
2023-04-22T03:33:37.809Z,72.9
2023-04-22T03:39:37.756Z,72.9
2023-04-22T03:45:38.564Z,72.5
2023-04-22T03:51:38.342Z,72.7
2023-04-22T03:57:37.664Z,72.7
2023-04-22T04:03:38.134Z,72.7
2023-04-22T04:09:37.748Z,72.5
2023-04-22T04:15:37.830Z,72.3
2023-04-22T04:21:37.798Z,72.2
2023-04-22T04:27:37.368Z,72.5
2023-04-22T04:33:38.067Z,72.4
2023-04-22T04:39:37.878Z,72.5
2023-04-22T04:45:38.099Z,72.5
2023-04-22T04:51:37.793Z,72.4
2023-04-22T04:57:38.575Z,72.3
2023-04-22T05:03:38.720Z,72.3
2023-04-22T05:09:38.012Z,72.3
2023-04-22T05:15:39.154Z,71.9
2023-04-22T05:21:37.872Z,72
2023-04-22T05:27:38.736Z,71.3
2023-04-22T05:33:37.692Z,71.4
2023-04-22T05:39:38.547Z,71.4
2023-04-22T05:45:38.530Z,71.6
2023-04-22T05:51:38.464Z,71.1
2023-04-22T05:57:37.898Z,71.3
2023-04-22T06:03:37.976Z,70.9
2023-04-22T06:09:38.351Z,70.9
2023-04-22T06:15:38.406Z,71.5
2023-04-22T06:27:38.145Z,70.9
2023-04-22T06:33:37.816Z,70.7
2023-04-22T06:39:38.056Z,70.1
2023-04-22T06:45:38.414Z,69.4
2023-04-22T06:51:37.404Z,69.6
2023-04-22T06:57:38.002Z,68.5
2023-04-22T07:03:38.492Z,68.5
2023-04-22T07:09:38.710Z,67.3
2023-04-22T07:15:38.135Z,65.3
2023-04-22T07:21:38.485Z,64.8
2023-04-22T07:27:37.508Z,64
2023-04-22T07:33:37.506Z,63.6
2023-04-22T07:39:38.352Z,61.2
2023-04-22T07:45:37.324Z,60.5
2023-04-22T07:51:37.932Z,57.9
2023-04-22T07:57:37.336Z,58.4
2023-04-22T08:03:37.926Z,57.4
2023-04-22T08:09:37.810Z,56.9
2023-04-22T08:15:37.910Z,55.9
2023-04-22T08:21:37.741Z,55.3
2023-04-22T08:27:37.916Z,54
2023-04-22T08:33:38.548Z,55.2
2023-04-22T08:39:37.786Z,54.5
2023-04-22T08:45:38.616Z,54.3
2023-04-22T08:51:37.494Z,54.4
2023-04-22T08:57:37.470Z,54.4
2023-04-22T09:03:37.515Z,52.9
2023-04-22T09:09:37.642Z,52.9
2023-04-22T09:15:38.078Z,52.4
2023-04-22T09:21:37.311Z,51.9
2023-04-22T09:27:37.413Z,52.2
2023-04-22T09:33:39.132Z,52.6
2023-04-22T09:39:38.519Z,54.4
2023-04-22T09:45:38.081Z,52.9
2023-04-22T09:51:37.802Z,51.5
2023-04-22T09:57:37.646Z,50.7
2023-04-22T10:03:37.750Z,49.9
2023-04-22T10:09:37.570Z,49.2
2023-04-22T10:15:38.220Z,48.9
2023-04-22T10:21:37.677Z,47.5
2023-04-22T10:27:37.307Z,48.8
2023-04-22T10:33:38.354Z,46.6
2023-04-22T10:42:37.379Z,45.9
2023-04-22T10:48:37.188Z,45.5
2023-04-22T10:54:37.369Z,46
2023-04-22T11:00:53.238Z,46
2023-04-22T11:06:37.307Z,44.6
2023-04-22T11:12:37.417Z,44.6
2023-04-22T11:18:38.124Z,45.3
2023-04-22T11:24:37.387Z,43.4
2023-04-22T11:30:47.588Z,41.4
2023-04-22T11:36:37.706Z,42
2023-04-22T11:42:37.219Z,41.5
2023-04-22T11:48:38.860Z,41.1
2023-04-22T11:54:37.274Z,42.1
2023-04-22T12:00:47.287Z,42.1
2023-04-22T12:06:37.347Z,43.9
2023-04-22T12:12:37.491Z,43.6
2023-04-22T12:18:37.272Z,43.5
2023-04-22T12:24:37.308Z,45.2
2023-04-22T12:30:50.342Z,43.9
2023-04-22T12:36:37.423Z,44.9
2023-04-22T12:42:37.334Z,45.7
2023-04-22T12:48:38.209Z,45.4
2023-04-22T13:00:59.454Z,44.8
2023-04-22T13:06:37.397Z,45
2023-04-22T13:12:38.634Z,45.8
2023-04-22T13:18:37.741Z,46.7
2023-04-22T13:24:37.886Z,48.1
2023-04-22T13:30:47.688Z,48.2
2023-04-22T13:36:37.434Z,48.6
2023-04-22T13:42:37.491Z,49.1
2023-04-22T13:48:40.501Z,50.5
2023-04-22T13:54:37.237Z,52.4
2023-04-22T14:00:50.989Z,51.8
2023-04-22T14:06:37.366Z,51.2
2023-04-22T14:12:39.483Z,50.5
2023-04-22T14:18:38.453Z,50.2
2023-04-22T14:24:37.726Z,50.2
2023-04-22T14:30:44.315Z,49.6
2023-04-22T14:36:37.739Z,50.5
2023-04-22T14:42:37.726Z,50.3
2023-04-22T14:48:37.509Z,50.7
2023-04-22T14:54:37.530Z,50.2
2023-04-22T15:01:02.493Z,50.1
2023-04-22T15:12:37.682Z,49.4
2023-04-22T15:18:37.700Z,50.5
2023-04-22T15:24:37.435Z,51.1
2023-04-22T15:30:47.733Z,51.8
2023-04-22T15:36:38.293Z,52.4
2023-04-22T15:42:37.396Z,52.8
2023-04-22T15:48:37.474Z,53.5
2023-04-22T15:54:37.424Z,53.5
2023-04-22T16:00:52.579Z,54.7
2023-04-22T16:06:37.506Z,55.5
2023-04-22T16:12:37.405Z,55.8
2023-04-22T16:18:37.341Z,56.1
2023-04-22T16:24:37.573Z,56.7
2023-04-22T16:30:46.047Z,57.1
2023-04-22T16:36:37.590Z,56.4
2023-04-22T16:42:37.754Z,57.4
2023-04-22T16:48:38.128Z,59.2
2023-04-22T16:54:37.930Z,60.8
2023-04-22T17:00:47.696Z,59.3
2023-04-22T17:06:39.779Z,58
2023-04-22T17:12:37.928Z,58.7
2023-04-22T17:18:37.622Z,60.9
2023-04-22T17:24:37.538Z,64
2023-04-22T17:30:40.300Z,66
2023-04-22T17:36:37.437Z,66.9
2023-04-22T17:42:45.766Z,66.3
2023-04-22T17:48:37.564Z,66.8
2023-04-22T17:54:37.406Z,66.8
2023-04-22T18:00:53.813Z,66.7
2023-04-22T18:06:38.735Z,66.7
2023-04-22T18:12:37.709Z,67.6
2023-04-22T18:18:38.142Z,66.9
2023-04-22T18:24:37.523Z,67.4
2023-04-22T18:30:41.658Z,67.5
2023-04-22T18:36:37.638Z,67.6
2023-04-22T18:42:37.749Z,67.6
2023-04-22T18:48:38.249Z,67.6
2023-04-22T18:54:37.532Z,68.2
2023-04-22T19:00:39.146Z,68.1
2023-04-22T19:06:37.781Z,68
2023-04-22T19:12:37.873Z,68.3
2023-04-22T19:18:37.474Z,68.3
2023-04-22T19:24:37.888Z,68.4
2023-04-22T19:30:43.309Z,68
2023-04-22T19:36:37.662Z,68.5
2023-04-22T19:42:38.435Z,68.4
2023-04-22T19:48:37.468Z,68.4
2023-04-22T19:54:37.512Z,68.4
2023-04-22T20:00:42.060Z,68.1
2023-04-22T20:06:37.540Z,68
2023-04-22T20:12:37.480Z,68.9
2023-04-22T20:18:37.443Z,69.4
2023-04-22T20:24:37.524Z,69.7
2023-04-22T20:30:37.646Z,70
2023-04-22T20:42:37.524Z,70.8
2023-04-22T20:48:38.411Z,70.2
2023-04-22T20:54:37.945Z,70.6
2023-04-22T21:00:50.952Z,71.4
2023-04-22T21:06:37.916Z,72.2
2023-04-22T21:12:37.776Z,73.6
2023-04-22T21:18:37.544Z,75
2023-04-22T21:24:37.871Z,75.8
2023-04-22T21:30:45.827Z,75.9
2023-04-22T21:36:37.348Z,75.8
2023-04-22T21:42:37.388Z,76
2023-04-22T21:48:37.339Z,76.2
2023-04-22T21:54:37.547Z,76.3
2023-04-22T22:00:58.480Z,77.7
2023-04-22T22:06:37.405Z,79.3
2023-04-22T22:12:37.843Z,79.7
2023-04-22T22:18:38.292Z,79
2023-04-22T22:24:37.847Z,79.1
2023-04-22T22:30:38.296Z,78.8
2023-04-22T22:36:37.307Z,78.7
2023-04-22T22:42:37.387Z,77.8
2023-04-22T22:48:37.707Z,77.7
2023-04-22T22:54:37.435Z,77.7
2023-04-22T23:00:48.924Z,78.1
2023-04-22T23:06:37.556Z,77.7
2023-04-22T23:12:38.027Z,77.8
2023-04-22T23:18:38.180Z,77.9
2023-04-22T23:24:37.409Z,77.5
2023-04-22T23:30:37.611Z,75.4
2023-04-22T23:36:37.656Z,76.8
2023-04-22T23:42:37.957Z,76.8
2023-04-22T23:48:38.325Z,76.4
2023-04-22T23:54:37.590Z,75.8
